Time;durP1;ratioP1;P1;durP2;ratioP2;P2;SDS_P1;SDS_P2;PMS_P1;PMS_P2;Temp;Humidity;BMP_temperature;BMP_pressure;BME280_temperature;BME280_humidity;BME280_pressure;Samples;Min_cycle;Max_cycle;Signal;HPM_P1;HPM_P2
2022/01/08 00:00:15;;;;;;;;;0.50;0.50;;;;;6.79;66.66;101152.69;5078035;27;45251;-47
2022/01/08 00:02:42;;;;;;;;;0.00;0.00;;;;;6.75;66.83;101155.53;5077199;27;46519;-46
2022/01/08 00:05:08;;;;;;;;;0.00;0.00;;;;;6.60;67.17;101134.66;5077623;27;45338;-47
2022/01/08 00:07:33;;;;;;;;;2.00;1.00;;;;;6.61;67.08;101149.56;5077394;27;45458;-46
2022/01/08 00:09:59;;;;;;;;;4.75;0.00;;;;;6.52;66.85;101152.88;5077897;28;45425;-47
2022/01/08 00:12:24;;;;;;;;;3.50;1.50;;;;;6.53;67.06;101170.41;5077431;27;45827;-46
2022/01/08 00:14:50;;;;;;;;;0.50;0.50;;;;;6.51;67.25;101170.53;5077562;27;45377;-43
2022/01/08 00:17:16;;;;;;;;;0.00;0.00;;;;;6.48;67.25;101173.38;5077941;27;45252;-46
2022/01/08 00:19:41;;;;;;;;;0.25;0.25;;;;;6.40;67.28;101184.50;5077934;27;45424;-47
2022/01/08 00:22:08;;;;;;;;;1.75;1.00;;;;;6.39;67.72;101195.19;5077432;27;45454;-45
2022/01/08 00:24:34;;;;;;;;;0.00;0.00;;;;;6.32;67.20;101194.78;5077735;27;45302;-48
2022/01/08 00:26:59;;;;;;;;;0.00;0.00;;;;;6.30;67.44;101199.31;5077673;27;45470;-46
2022/01/08 00:29:24;;;;;;;;;5.25;0.00;;;;;6.27;67.35;101199.53;5078032;27;45329;-50
2022/01/08 00:31:50;;;;;;;;;0.00;0.00;;;;;6.16;67.66;101191.53;5077202;27;47132;-47
2022/01/08 00:34:15;;;;;;;;;0.00;0.00;;;;;6.21;67.49;101214.03;5076193;28;45210;-48
2022/01/08 00:36:41;;;;;;;;;0.00;0.00;;;;;6.16;67.33;101212.66;5077098;27;45372;-47
2022/01/08 00:39:06;;;;;;;;;1.25;0.00;;;;;6.13;67.96;101211.06;5077602;27;45358;-50
2022/01/08 00:41:32;;;;;;;;;1.50;0.00;;;;;6.09;67.68;101211.38;5077164;27;47074;-48
2022/01/08 00:43:57;;;;;;;;;0.00;0.00;;;;;5.94;68.10;101195.66;5077063;27;45238;-48
2022/01/08 00:46:22;;;;;;;;;0.00;0.00;;;;;6.06;67.79;101222.16;5076116;28;45383;-48
2022/01/08 00:48:48;;;;;;;;;2.25;0.50;;;;;5.94;67.61;101205.34;5077643;27;45338;-49
2022/01/08 00:51:13;;;;;;;;;0.00;0.00;;;;;6.02;68.26;101236.53;5077011;27;45967;-46
2022/01/08 00:53:39;;;;;;;;;0.00;0.00;;;;;5.99;67.82;101242.88;5077269;27;45350;-48
2022/01/08 00:56:05;;;;;;;;;0.00;0.00;;;;;5.95;68.24;101244.03;5076974;27;45358;-48
2022/01/08 00:58:30;;;;;;;;;0.00;0.00;;;;;5.93;68.43;101249.41;5077505;28;45295;-49
2022/01/08 01:00:56;;;;;;;;;0.25;0.25;;;;;5.96;68.31;101258.91;5075573;28;46343;-49
2022/01/08 01:03:22;;;;;;;;;0.00;0.00;;;;;5.95;68.26;101262.53;5075649;28;45418;-47
2022/01/08 01:05:47;;;;;;;;;0.00;0.00;;;;;5.91;67.87;101258.38;5076856;27;45654;-50
2022/01/08 01:08:13;;;;;;;;;0.00;0.00;;;;;5.91;68.45;101263.66;5077214;27;45298;-48
2022/01/08 01:10:39;;;;;;;;;0.00;0.00;;;;;5.90;69.42;101270.72;5076805;27;45939;-46
2022/01/08 01:13:04;;;;;;;;;1.50;0.75;;;;;5.87;68.84;101268.28;5076674;27;45287;-47
2022/01/08 01:15:30;;;;;;;;;4.00;0.00;;;;;5.87;69.06;101263.00;5076831;27;45287;-47
2022/01/08 01:17:56;;;;;;;;;0.00;0.00;;;;;5.86;68.74;101261.31;5077112;27;45250;-49
2022/01/08 01:20:22;;;;;;;;;1.00;1.00;;;;;5.85;69.62;101267.53;5076760;27;46802;-48
2022/01/08 01:25:26;;;;;;;;;1.00;1.00;;;;;5.72;69.22;101256.09;5080470;27;45231;-47
2022/01/08 01:30:24;;;;;;;;;2.00;0.00;;;;;5.80;69.12;101271.44;5080245;27;46022;-47
2022/01/08 01:48:48;;;;;;;;;1.25;0.00;;;;;5.73;68.77;101261.31;5080346;28;45605;-49
2022/01/08 01:51:21;;;;;;;;;1.75;0.00;;;;;5.64;68.77;101245.22;5079383;27;46076;-44
2022/01/08 01:53:47;;;;;;;;;0.00;0.00;;;;;5.65;68.69;101247.75;5079860;27;45302;-48
2022/01/08 01:56:15;;;;;;;;;3.50;1.50;;;;;5.70;68.81;101274.69;5079880;27;45208;-48
2022/01/08 01:58:40;;;;;;;;;0.25;0.00;;;;;5.70;68.47;101272.06;5080028;27;45318;-49
2022/01/08 02:01:06;;;;;;;;;0.00;0.00;;;;;5.71;68.45;101272.91;5079677;27;45387;-43
2022/01/08 02:03:31;;;;;;;;;0.75;0.25;;;;;5.68;68.71;101271.28;5079707;27;45412;-48
2022/01/08 02:05:56;;;;;;;;;0.00;0.00;;;;;5.70;69.03;101279.97;5079813;27;45727;-47
2022/01/08 02:08:22;;;;;;;;;1.75;0.50;;;;;5.67;68.65;101261.69;5079773;27;45401;-48
2022/01/08 02:10:47;;;;;;;;;2.50;1.00;;;;;5.68;68.73;101268.66;5079589;27;46331;-50
2022/01/08 02:13:24;;;;;;;;;1.00;1.00;;;;;5.67;68.97;101260.84;5079636;27;45416;-47
2022/01/08 02:15:54;;;;;;;;;1.50;0.00;;;;;5.66;68.64;101265.28;5079638;27;45149;-49
2022/01/08 02:18:21;;;;;;;;;1.25;0.00;;;;;5.67;68.41;101266.13;5079603;27;45322;-48
2022/01/08 02:20:47;;;;;;;;;1.00;0.50;;;;;5.66;68.39;101275.84;5079294;28;45295;-44
2022/01/08 02:23:12;;;;;;;;;4.00;0.00;;;;;5.68;68.13;101278.38;5079202;27;45407;-44
2022/01/08 02:25:38;;;;;;;;;0.00;0.00;;;;;5.67;68.22;101281.97;5079506;27;45326;-51
2022/01/08 02:28:04;;;;;;;;;0.00;0.00;;;;;5.66;68.38;101285.56;5079805;27;45324;-49
2022/01/08 02:30:30;;;;;;;;;2.00;0.00;;;;;5.65;68.35;101290.00;5079155;27;47390;-47
2022/01/08 02:32:55;;;;;;;;;0.00;0.00;;;;;5.65;68.19;101284.72;5079166;27;45430;-44
2022/01/08 02:35:22;;;;;;;;;0.00;0.00;;;;;5.65;68.88;101291.78;5079300;28;45725;-47
2022/01/08 02:37:51;;;;;;;;;6.50;1.00;;;;;5.65;68.69;101283.88;5079008;27;45522;-48
2022/01/08 02:40:19;;;;;;;;;1.50;0.00;;;;;5.64;68.48;101280.38;5079031;27;46338;-43
2022/01/08 02:43:01;;;;;;;;;0.00;0.00;;;;;5.65;68.52;101292.63;5079153;27;45397;-45
2022/01/08 02:45:28;;;;;;;;;0.00;0.00;;;;;5.65;68.55;101287.34;5079174;27;45362;-46
2022/01/08 02:47:55;;;;;;;;;1.00;0.00;;;;;5.64;68.07;101287.44;5079185;27;45212;-44
2022/01/08 02:50:22;;;;;;;;;0.00;0.00;;;;;5.64;68.17;101288.28;5079080;27;45341;-46
2022/01/08 02:52:48;;;;;;;;;3.00;0.00;;;;;5.66;68.51;101281.13;5078692;27;45340;-48
2022/01/08 02:55:16;;;;;;;;;0.00;0.00;;;;;5.64;68.78;101283.00;5079000;28;45394;-45
2022/01/08 02:57:42;;;;;;;;;0.00;0.00;;;;;5.65;67.96;101284.72;5078874;27;45362;-49
2022/01/08 03:00:09;;;;;;;;;1.50;0.00;;;;;5.65;68.58;101289.16;5078519;28;46369;-47
2022/01/08 03:02:43;;;;;;;;;0.50;0.50;;;;;5.62;68.49;101303.38;5079065;27;45282;-49
2022/01/08 03:05:11;;;;;;;;;0.00;0.00;;;;;5.65;68.17;101312.91;5078735;27;45365;-45
2022/01/08 03:07:41;;;;;;;;;1.50;0.00;;;;;5.65;68.45;101295.28;5078725;27;45397;-49
2022/01/08 03:10:10;;;;;;;;;0.00;0.00;;;;;5.68;68.62;101300.31;5078642;27;46415;-48
2022/01/08 03:12:43;;;;;;;;;0.50;0.25;;;;;5.67;67.78;101303.94;5078661;27;45441;-43
2022/01/08 03:15:20;;;;;;;;;3.25;0.75;;;;;5.65;67.72;101305.00;5078701;27;45220;-47
2022/01/08 03:17:46;;;;;;;;;0.00;0.00;;;;;5.64;68.39;101303.28;5078587;27;45334;-49
2022/01/08 03:20:14;;;;;;;;;1.50;1.00;;;;;5.64;68.44;101298.00;5078483;27;45316;-47
2022/01/08 03:22:42;;;;;;;;;2.00;1.00;;;;;5.63;68.08;101291.03;5078311;27;45505;-47
2022/01/08 03:25:09;;;;;;;;;0.00;0.00;;;;;5.64;67.74;101290.91;5078700;27;45313;-47
2022/01/08 03:27:35;;;;;;;;;0.00;0.00;;;;;5.61;68.32;101285.03;5078735;27;45526;-46
2022/01/08 03:30:01;;;;;;;;;2.00;0.00;;;;;5.63;68.69;101283.13;5078064;27;46950;-48
2022/01/08 03:32:26;;;;;;;;;0.00;0.00;;;;;5.62;68.39;101279.63;5078474;27;45234;-43
2022/01/08 03:34:52;;;;;;;;;0.00;0.00;;;;;5.59;68.50;101269.28;5078581;27;45287;-43
2022/01/08 03:37:18;;;;;;;;;0.00;0.00;;;;;5.58;68.69;101278.16;5078478;27;45259;-47
2022/01/08 03:39:44;;;;;;;;;1.25;0.00;;;;;5.57;68.21;101280.91;5078370;27;47186;-47
2022/01/08 03:42:09;;;;;;;;;1.00;0.00;;;;;5.48;68.49;101269.16;5078359;27;45418;-48
2022/01/08 03:44:35;;;;;;;;;0.00;0.00;;;;;5.53;68.27;101284.69;5079727;27;45310;-46
2022/01/08 03:47:22;;;;;;;;;2.50;0.25;;;;;5.50;68.42;101286.56;5080307;27;45375;-44
2022/01/08 03:49:46;;;;;;;;;0.00;0.00;;;;;5.46;68.90;101286.88;5081439;28;45369;-44
2022/01/08 03:52:14;;;;;;;;;3.00;0.00;;;;;5.49;68.31;101294.59;5080503;27;45374;-46
2022/01/08 03:54:40;;;;;;;;;0.00;0.00;;;;;5.46;68.95;101300.06;5081995;27;45292;-44
2022/01/08 03:57:06;;;;;;;;;0.25;0.00;;;;;5.42;69.38;101296.78;5081563;28;45445;-43
2022/01/08 03:59:31;;;;;;;;;0.00;0.00;;;;;5.43;68.77;101293.19;5081105;27;46054;-45
2022/01/08 04:01:56;;;;;;;;;0.00;0.00;;;;;5.43;69.14;101294.97;5081485;27;45215;-45
2022/01/08 04:04:22;;;;;;;;;1.00;1.00;;;;;5.42;68.88;101290.66;5080739;27;45388;-48
2022/01/08 04:06:47;;;;;;;;;0.00;0.00;;;;;5.41;68.94;101286.31;5078174;27;45354;-48
2022/01/08 04:09:13;;;;;;;;;0.00;0.00;;;;;5.38;68.76;101281.25;5077566;27;46081;-49
2022/01/08 04:11:39;;;;;;;;;0.00;0.00;;;;;5.32;68.99;101271.09;5078328;28;45455;-47
2022/01/08 04:14:04;;;;;;;;;2.00;0.75;;;;;5.35;69.48;101294.63;5078975;27;45481;-48
2022/01/08 04:16:33;;;;;;;;;2.00;0.75;;;;;5.34;69.28;101306.13;5078488;27;45350;-45
2022/01/08 04:18:59;;;;;;;;;0.00;0.00;;;;;5.35;69.26;101300.78;5079007;27;45382;-42
2022/01/08 04:23:52;;;;;;;;;1.00;1.00;;;;;5.35;69.21;101294.63;5077493;27;45275;-47
2022/01/08 04:26:19;;;;;;;;;0.75;0.75;;;;;5.36;69.69;101294.53;5077849;28;45306;-49
2022/01/08 04:28:45;;;;;;;;;0.00;0.00;;;;;5.39;69.31;101293.47;5077715;27;46093;-50
2022/01/08 04:31:10;;;;;;;;;3.50;1.00;;;;;5.39;69.58;101290.84;5076274;28;45329;-49
2022/01/08 04:33:36;;;;;;;;;1.00;1.00;;;;;5.41;69.26;101286.31;5077573;27;45318;-46
2022/01/08 04:36:01;;;;;;;;;2.75;0.50;;;;;5.43;69.34;101281.78;5077546;27;45607;-44
2022/01/08 04:38:27;;;;;;;;;1.75;1.75;;;;;5.36;69.31;101262.88;5077281;27;46149;-46
2022/01/08 04:40:52;;;;;;;;;4.75;1.00;;;;;5.45;69.11;101280.75;5077211;27;45445;-47
2022/01/08 04:43:17;;;;;;;;;4.75;1.50;;;;;5.49;69.84;101284.03;5077650;27;45430;-49
2022/01/08 04:45:43;;;;;;;;;1.00;1.00;;;;;5.50;69.56;101277.81;5077688;27;45345;-46
2022/01/08 04:48:09;;;;;;;;;1.00;1.00;;;;;5.51;69.38;101269.78;5077337;27;47199;-45
2022/01/08 04:50:34;;;;;;;;;5.00;1.50;;;;;5.53;69.78;101272.34;5077166;28;45201;-46
2022/01/08 04:53:00;;;;;;;;;2.00;1.25;;;;;5.53;69.91;101268.84;5077018;27;45469;-47
2022/01/08 04:55:26;;;;;;;;;1.00;1.00;;;;;5.59;69.77;101292.19;5077537;28;45256;-48
2022/01/08 04:57:51;;;;;;;;;4.75;1.25;;;;;5.54;70.07;101297.75;5077148;27;45474;-47
2022/01/08 05:00:19;;;;;;;;;0.75;0.75;;;;;5.58;70.23;101314.25;5080871;27;45402;-46
2022/01/08 05:02:46;;;;;;;;;0.25;0.25;;;;;5.60;69.19;101314.97;5080679;27;45437;-47
2022/01/08 05:05:11;;;;;;;;;2.00;1.00;;;;;5.61;69.80;101320.19;5080603;27;45436;-47
2022/01/08 05:07:38;;;;;;;;;4.25;1.00;;;;;5.60;70.62;101312.34;5080373;27;47450;-49
2022/01/08 05:10:05;;;;;;;;;2.50;1.00;;;;;5.60;70.41;101320.25;5080321;27;45439;-48
2022/01/08 05:12:30;;;;;;;;;0.00;0.00;;;;;5.63;70.73;101318.28;5080457;27;45295;-49
2022/01/08 05:14:57;;;;;;;;;0.75;0.75;;;;;5.65;70.76;101308.47;5080706;27;45207;-51
2022/01/08 05:17:28;;;;;;;;;4.00;2.00;;;;;5.77;70.61;101314.72;5080107;27;46547;-47
2022/01/08 05:19:54;;;;;;;;;1.50;1.50;;;;;5.86;70.39;101313.28;5080367;27;45326;-47
2022/01/08 05:22:31;;;;;;;;;1.00;1.00;;;;;5.94;70.06;101303.06;5080295;27;45370;-47
2022/01/08 05:24:57;;;;;;;;;4.25;0.00;;;;;5.98;70.06;101299.25;5080795;27;45418;-47
2022/01/08 05:27:23;;;;;;;;;1.00;0.00;;;;;6.03;69.55;101305.09;5080472;28;45368;-49
2022/01/08 05:29:50;;;;;;;;;1.75;1.75;;;;;6.08;70.06;101305.63;5080225;27;45931;-48
2022/01/08 05:32:17;;;;;;;;;0.25;0.25;;;;;6.13;69.65;101314.09;5080178;27;45348;-46
2022/01/08 05:34:48;;;;;;;;;1.50;0.00;;;;;6.16;69.68;101311.25;5080527;27;45410;-49
2022/01/08 05:37:15;;;;;;;;;5.00;1.75;;;;;6.21;69.33;101303.00;5079801;27;46200;-49
2022/01/08 05:39:40;;;;;;;;;1.50;0.75;;;;;6.20;69.27;101296.88;5079969;27;45464;-48
2022/01/08 05:42:06;;;;;;;;;0.00;0.00;;;;;6.19;69.59;101281.09;5080210;27;45402;-47
2022/01/08 05:44:32;;;;;;;;;0.75;0.75;;;;;6.23;69.24;101282.59;5080432;27;45331;-46
2022/01/08 05:46:58;;;;;;;;;0.75;0.75;;;;;6.22;69.37;101287.03;5079934;27;45360;-46
2022/01/08 05:49:24;;;;;;;;;0.00;0.00;;;;;6.21;69.80;101282.72;5079983;28;45451;-42
2022/01/08 05:51:49;;;;;;;;;2.00;1.50;;;;;6.21;69.44;101276.59;5079912;27;45376;-48
2022/01/08 05:54:14;;;;;;;;;0.50;0.50;;;;;6.21;69.96;101279.22;5080195;27;45460;-48
2022/01/08 05:56:40;;;;;;;;;0.00;0.00;;;;;6.22;69.62;101275.63;5079786;27;45463;-47
2022/01/08 05:59:05;;;;;;;;;1.50;0.00;;;;;6.22;69.64;101270.34;5079896;27;45349;-45
2022/01/08 06:01:33;;;;;;;;;1.75;1.00;;;;;6.14;69.41;101252.38;5079789;27;45462;-48
2022/01/08 06:03:59;;;;;;;;;0.00;0.00;;;;;6.17;69.76;101270.66;5080069;27;45677;-47
2022/01/08 06:06:24;;;;;;;;;1.75;0.75;;;;;6.14;70.10;101264.72;5079838;28;45374;-49
2022/01/08 06:08:49;;;;;;;;;5.00;0.75;;;;;6.15;70.09;101276.97;5079012;27;45359;-49
2022/01/08 06:11:15;;;;;;;;;5.75;1.75;;;;;6.15;70.11;101283.16;5079776;27;45444;-48
2022/01/08 06:13:40;;;;;;;;;1.50;0.00;;;;;6.19;70.14;101289.03;5079733;27;45298;-45
2022/01/08 06:16:06;;;;;;;;;2.00;0.25;;;;;6.20;70.19;101281.03;5079379;27;46794;-46
2022/01/08 06:18:31;;;;;;;;;4.00;1.00;;;;;6.19;70.62;101281.97;5079489;27;45239;-49
2022/01/08 06:20:59;;;;;;;;;1.25;1.00;;;;;6.25;69.89;101289.47;5079604;27;45428;-46
2022/01/08 06:23:27;;;;;;;;;0.25;0.25;;;;;6.25;70.31;101276.25;5079671;27;45427;-49
2022/01/08 06:25:53;;;;;;;;;1.50;1.50;;;;;6.23;70.56;101266.75;5079210;27;46276;-49
2022/01/08 06:28:18;;;;;;;;;0.75;0.75;;;;;6.21;70.29;101255.44;5079252;27;45227;-48
2022/01/08 06:30:44;;;;;;;;;3.50;1.00;;;;;6.16;70.46;101245.19;5079509;27;45461;-48
2022/01/08 06:33:09;;;;;;;;;4.00;1.25;;;;;6.14;70.60;101249.72;5079575;27;45330;-47
2022/01/08 06:35:35;;;;;;;;;0.00;0.00;;;;;6.10;70.48;101258.81;5078652;27;45345;-49
2022/01/08 06:38:00;;;;;;;;;2.00;2.00;;;;;6.09;70.53;101272.97;5078760;27;45306;-49
2022/01/08 06:40:25;;;;;;;;;0.00;0.00;;;;;6.08;70.99;101266.00;5079051;27;45279;-48
2022/01/08 06:42:51;;;;;;;;;0.75;0.75;;;;;6.11;70.86;101263.16;5079421;27;45407;-46
2022/01/08 06:45:16;;;;;;;;;1.75;0.75;;;;;6.11;70.89;101263.16;5078847;27;45892;-48
2022/01/08 06:47:45;;;;;;;;;1.00;1.00;;;;;6.10;71.14;101255.34;5079082;27;45323;-48
2022/01/08 06:50:11;;;;;;;;;1.00;1.00;;;;;6.11;71.23;101252.59;5079023;28;45398;-50
2022/01/08 06:52:36;;;;;;;;;0.50;0.50;;;;;6.12;70.95;101241.06;5079237;27;45290;-49
2022/01/08 06:55:02;;;;;;;;;4.75;1.00;;;;;6.13;70.67;101241.91;5078580;27;46056;-48
2022/01/08 06:57:28;;;;;;;;;0.00;0.00;;;;;6.12;71.22;101250.81;5078619;27;45380;-46
2022/01/08 06:59:53;;;;;;;;;1.00;1.00;;;;;6.11;71.42;101242.03;5078959;27;45196;-47
2022/01/08 07:02:18;;;;;;;;;0.50;0.50;;;;;6.12;70.94;101256.94;5079041;27;45415;-49
2022/01/08 07:04:44;;;;;;;;;5.00;2.00;;;;;6.14;70.99;101249.72;5078526;27;46992;-47
2022/01/08 07:07:09;;;;;;;;;4.00;1.00;;;;;6.16;71.21;101255.78;5078822;27;45351;-46
2022/01/08 07:09:35;;;;;;;;;4.75;1.00;;;;;6.19;70.67;101239.72;5078556;27;45536;-46
2022/01/08 07:12:00;;;;;;;;;2.00;1.00;;;;;6.23;71.48;101238.53;5079070;27;45290;-49
2022/01/08 07:14:25;;;;;;;;;0.00;0.00;;;;;6.27;70.85;101233.03;5078431;27;47168;-49
2022/01/08 07:16:51;;;;;;;;;0.00;0.00;;;;;6.30;70.51;101233.66;5078373;27;45462;-47
2022/01/08 07:19:18;;;;;;;;;1.00;1.00;;;;;6.28;70.79;101229.44;5078823;27;45403;-48
2022/01/08 07:21:44;;;;;;;;;1.75;0.25;;;;;6.24;71.01;101219.09;5077683;27;45453;-49
2022/01/08 07:24:09;;;;;;;;;1.25;0.25;;;;;6.28;71.27;101221.50;5078512;27;45512;-48
2022/01/08 07:26:34;;;;;;;;;6.50;4.50;;;;;6.27;71.27;101217.19;5078211;27;45327;-45
2022/01/08 07:29:00;;;;;;;;;1.00;1.00;;;;;6.29;71.57;101221.41;5078587;27;45317;-49
2022/01/08 07:31:25;;;;;;;;;9.75;1.00;;;;;6.27;71.85;101206.63;5078584;27;45358;-50
2022/01/08 07:33:51;;;;;;;;;1.00;1.00;;;;;6.24;72.13;101195.31;5078253;27;46079;-48
2022/01/08 07:36:17;;;;;;;;;1.00;1.00;;;;;6.28;72.27;101197.72;5078058;27;45222;-47
2022/01/08 07:38:43;;;;;;;;;0.00;0.00;;;;;6.26;71.98;101189.91;5076980;28;45367;-48
2022/01/08 07:41:08;;;;;;;;;6.00;3.50;;;;;6.27;71.82;101190.75;5078150;27;45353;-46
2022/01/08 07:43:34;;;;;;;;;4.25;2.00;;;;;6.25;72.55;101199.66;5078055;27;46145;-49
2022/01/08 07:45:59;;;;;;;;;1.75;1.75;;;;;6.25;72.41;101188.25;5078089;27;45352;-49
2022/01/08 07:48:25;;;;;;;;;2.00;2.00;;;;;6.27;73.18;101194.25;5078255;27;45318;-49
2022/01/08 07:50:50;;;;;;;;;5.00;2.00;;;;;6.28;73.20;101190.66;5078313;27;45340;-49
2022/01/08 07:53:15;;;;;;;;;3.00;2.00;;;;;6.29;72.79;101189.72;5077633;27;46145;-49
2022/01/08 07:55:41;;;;;;;;;0.50;0.00;;;;;6.33;72.73;101191.19;5077731;27;45490;-48
2022/01/08 07:58:06;;;;;;;;;0.00;0.00;;;;;6.31;72.76;101193.06;5077980;27;45302;-48
2022/01/08 08:00:32;;;;;;;;;1.25;1.25;;;;;6.35;72.43;101191.06;5078183;28;45291;-46
2022/01/08 08:02:57;;;;;;;;;1.00;1.00;;;;;6.33;72.34;101185.06;5077831;28;45522;-50
2022/01/08 08:05:22;;;;;;;;;0.75;0.00;;;;;6.32;72.89;101180.69;5077565;27;45398;-46
2022/01/08 08:07:48;;;;;;;;;3.00;1.50;;;;;6.33;73.12;101161.28;5077877;27;45365;-50
2022/01/08 08:10:17;;;;;;;;;5.00;0.50;;;;;6.32;73.30;101178.94;5077766;27;45448;-47
2022/01/08 08:12:42;;;;;;;;;2.00;2.00;;;;;6.32;73.52;101154.28;5077530;27;47052;-48
2022/01/08 08:15:09;;;;;;;;;4.00;4.00;;;;;6.36;73.49;101158.41;5077552;27;45348;-48
2022/01/08 08:17:35;;;;;;;;;5.50;2.00;;;;;6.36;72.83;101167.19;5077632;27;45540;-46
2022/01/08 08:20:01;;;;;;;;;2.00;2.00;;;;;6.40;73.99;101162.50;5077887;27;45455;-44
2022/01/08 08:22:27;;;;;;;;;4.00;1.75;;;;;6.32;74.16;101141.06;5077317;27;47257;-47
2022/01/08 08:24:52;;;;;;;;;5.25;4.00;;;;;6.43;74.07;101152.56;5077608;27;45397;-47
2022/01/08 08:27:18;;;;;;;;;2.50;1.75;;;;;6.47;73.46;101151.41;5077428;27;45330;-45
2022/01/08 08:29:43;;;;;;;;;2.25;1.25;;;;;6.52;73.12;101159.00;5077588;27;45417;-47
2022/01/08 08:32:09;;;;;;;;;7.00;2.50;;;;;6.40;73.65;101133.44;5077204;28;45385;-47
2022/01/08 08:34:35;;;;;;;;;6.75;5.25;;;;;6.52;73.45;101142.28;5077379;27;45339;-47
2022/01/08 08:37:00;;;;;;;;;2.00;2.00;;;;;6.48;73.63;101129.28;5077022;27;45599;-43
2022/01/08 08:39:26;;;;;;;;;8.50;2.50;;;;;6.41;73.99;101104.28;5077448;27;45244;-47
2022/01/08 08:41:51;;;;;;;;;7.75;4.25;;;;;6.54;73.82;101125.38;5077132;27;45908;-46
2022/01/08 08:44:17;;;;;;;;;4.00;4.00;;;;;6.55;74.32;101121.78;5077322;27;45230;-45
2022/01/08 08:46:43;;;;;;;;;8.00;5.00;;;;;6.60;74.74;101124.09;5077313;27;45212;-45
2022/01/08 08:49:08;;;;;;;;;7.00;6.00;;;;;6.55;74.49;101103.28;5077637;27;45393;-43
2022/01/08 08:51:34;;;;;;;;;4.50;4.00;;;;;6.63;75.28;101108.84;5077380;27;45330;-43
2022/01/08 08:53:59;;;;;;;;;7.00;6.75;;;;;6.69;74.88;101100.44;5075709;28;45362;-45
2022/01/08 08:56:25;;;;;;;;;7.50;3.50;;;;;6.64;74.98;101077.97;5075845;28;45524;-45
2022/01/08 08:58:50;;;;;;;;;4.25;2.00;;;;;6.73;74.68;101090.50;5077035;27;45293;-44
2022/01/08 09:01:15;;;;;;;;;7.75;4.50;;;;;6.69;74.75;101089.03;5076978;27;45308;-44
2022/01/08 09:03:41;;;;;;;;;11.00;5.75;;;;;6.70;74.86;101094.22;5077096;27;45421;-44
2022/01/08 09:06:06;;;;;;;;;10.25;6.00;;;;;6.67;75.28;101094.44;5077063;27;45771;-45
2022/01/08 09:08:31;;;;;;;;;9.75;8.25;;;;;6.71;75.26;101101.19;5075749;28;45420;-44
2022/01/08 09:10:57;;;;;;;;;5.00;4.00;;;;;6.73;75.31;101098.44;5076635;27;45413;-44
2022/01/08 09:13:25;;;;;;;;;7.00;5.00;;;;;6.76;74.83;101085.00;5075538;28;45417;-45
2022/01/08 09:15:50;;;;;;;;;9.00;5.00;;;;;6.83;75.66;101088.03;5077055;28;45274;-47
2022/01/08 09:18:16;;;;;;;;;13.00;8.00;;;;;6.87;74.87;101077.13;5076817;27;45418;-47
2022/01/08 09:20:42;;;;;;;;;5.00;5.00;;;;;6.98;75.41;101073.66;5076714;27;45354;-44
2022/01/08 09:23:07;;;;;;;;;7.25;5.50;;;;;7.06;74.94;101071.25;5076376;27;45197;-47
2022/01/08 09:25:33;;;;;;;;;10.00;9.00;;;;;7.07;75.48;101059.72;5076739;27;45358;-47
2022/01/08 09:27:58;;;;;;;;;7.75;6.00;;;;;7.10;74.85;101050.72;5076925;27;45482;-46
2022/01/08 09:30:24;;;;;;;;;6.75;6.75;;;;;7.17;74.97;101038.72;5076377;27;46337;-46
2022/01/08 09:32:50;;;;;;;;;8.75;8.75;;;;;7.27;74.93;101065.31;5076509;27;45347;-47
2022/01/08 09:35:16;;;;;;;;;8.00;5.00;;;;;7.38;74.93;101055.59;5076353;27;45428;-47
2022/01/08 09:37:42;;;;;;;;;14.50;9.00;;;;;7.52;74.20;101053.66;5076427;27;45485;-48
2022/01/08 09:40:11;;;;;;;;;8.75;5.75;;;;;7.60;75.09;101046.81;5076340;28;46591;-48
2022/01/08 09:42:39;;;;;;;;;9.75;8.00;;;;;7.67;74.41;101052.50;5076200;27;45608;-44
2022/01/08 09:45:05;;;;;;;;;9.00;6.00;;;;;7.68;74.57;101039.13;5078215;27;45433;-44
2022/01/08 09:47:30;;;;;;;;;12.00;10.00;;;;;7.73;75.15;101038.75;5079939;27;45425;-44
2022/01/08 09:49:56;;;;;;;;;10.00;8.75;;;;;7.76;74.86;101038.53;5079557;27;47074;-45
2022/01/08 09:52:21;;;;;;;;;9.00;5.00;;;;;7.77;74.77;101026.94;5079724;27;45438;-46
2022/01/08 09:54:47;;;;;;;;;7.00;5.25;;;;;7.69;74.85;101013.47;5079880;28;45338;-45
2022/01/08 09:57:12;;;;;;;;;8.50;7.00;;;;;7.79;75.14;101024.16;5079629;27;45372;-44
2022/01/08 09:59:38;;;;;;;;;13.00;8.00;;;;;7.71;75.05;101006.22;5079686;27;45313;-49
2022/01/08 10:02:04;;;;;;;;;10.00;6.00;;;;;7.81;74.67;101011.66;5079532;27;45338;-46
2022/01/08 10:04:35;;;;;;;;;11.25;6.50;;;;;7.82;76.08;101003.59;5079721;27;45280;-44
2022/01/08 10:07:16;;;;;;;;;16.00;6.50;;;;;7.86;75.77;101010.31;5079844;27;45517;-45
2022/01/08 10:10:04;;;;;;;;;12.75;8.00;;;;;7.92;75.75;100986.00;5079301;27;45424;-43
2022/01/08 10:12:39;;;;;;;;;6.50;5.50;;;;;8.02;76.16;100986.09;5079118;28;45439;-45
2022/01/08 10:17:49;;;;;;;;;16.00;9.25;;;;;8.15;75.94;100975.34;5078388;28;45382;-43
2022/01/08 10:20:50;;;;;;;;;12.50;8.00;;;;;8.15;75.35;100976.19;5078860;27;46040;-43
2022/01/08 10:23:21;;;;;;;;;10.25;6.50;;;;;8.19;75.77;100977.63;5076833;28;45468;-45
2022/01/08 10:25:58;;;;;;;;;12.50;9.00;;;;;8.21;76.04;100969.53;5076766;28;45398;-46
2022/01/08 10:28:51;;;;;;;;;8.00;7.00;;;;;8.23;75.29;100970.25;5076583;28;45526;-46
2022/01/08 10:31:21;;;;;;;;;15.75;11.25;;;;;8.20;76.03;100955.44;5071787;28;46169;-47
2022/01/08 10:34:08;;;;;;;;;12.00;9.75;;;;;8.23;77.09;100957.00;5075551;28;45412;-42
2022/01/08 10:36:46;;;;;;;;;10.25;8.25;;;;;8.23;76.00;100957.00;5076242;28;45299;-49
2022/01/08 10:39:18;;;;;;;;;16.00;10.00;;;;;8.22;76.79;100944.72;5076864;28;45564;-45
2022/01/08 10:41:45;;;;;;;;;13.75;8.75;;;;;8.23;77.69;100943.75;5076338;28;48095;-43
2022/01/08 10:44:23;;;;;;;;;10.00;7.00;;;;;8.23;77.09;100939.28;5075208;28;45537;-45
2022/01/08 10:46:51;;;;;;;;;8.50;5.50;;;;;8.24;77.19;100935.66;5076246;28;45347;-45
2022/01/08 10:49:26;;;;;;;;;10.50;5.00;;;;;8.16;77.63;100910.78;5076852;28;45313;-43
2022/01/08 10:51:56;;;;;;;;;15.00;6.00;;;;;8.25;77.13;100920.59;5076020;28;47290;-43
2022/01/08 10:54:25;;;;;;;;;11.25;7.25;;;;;8.26;78.79;100911.72;5075277;28;45390;-43
2022/01/08 10:56:56;;;;;;;;;6.00;6.00;;;;;8.32;78.02;100913.84;5063024;28;45436;-44
2022/01/08 10:59:25;;;;;;;;;11.25;5.25;;;;;8.36;77.96;100895.88;5078478;27;45545;-47
2022/01/08 11:02:10;;;;;;;;;7.25;5.00;;;;;8.37;78.05;100893.09;5078047;28;46015;-48
2022/01/08 11:04:39;;;;;;;;;9.00;6.00;;;;;8.35;77.60;100878.28;5078003;28;45346;-45
2022/01/08 11:07:08;;;;;;;;;8.75;4.25;;;;;8.36;78.91;100870.19;5078169;27;45425;-46
2022/01/08 11:09:36;;;;;;;;;8.00;4.75;;;;;8.38;76.93;100875.38;5078246;28;45490;-45
2022/01/08 11:12:04;;;;;;;;;5.00;5.00;;;;;8.41;78.09;100867.19;5078068;27;45377;-50
2022/01/08 11:17:16;;;;;;;;;14.00;6.50;;;;;8.46;78.65;100841.13;5078031;28;45471;-48
2022/01/08 11:19:44;;;;;;;;;5.75;4.75;;;;;8.47;78.18;100834.88;5077879;28;45347;-47
2022/01/08 11:22:12;;;;;;;;;8.50;5.00;;;;;8.53;77.98;100825.53;5077688;27;47092;-45
2022/01/08 11:24:48;;;;;;;;;9.75;5.00;;;;;8.54;78.54;100820.09;5077662;28;45356;-46
2022/01/08 11:27:18;;;;;;;;;10.75;4.50;;;;;8.57;77.68;100817.19;5077798;28;45378;-47
2022/01/08 11:29:45;;;;;;;;;8.25;5.50;;;;;8.58;77.86;100815.38;5078179;27;45426;-47
2022/01/08 11:32:14;;;;;;;;;9.75;3.25;;;;;8.60;78.92;100811.63;5077556;28;47271;-44
2022/01/08 11:34:43;;;;;;;;;15.50;5.75;;;;;8.63;78.25;100808.69;5076520;27;45480;-47
2022/01/08 11:37:10;;;;;;;;;7.25;6.00;;;;;8.64;76.88;100799.78;5077672;27;45433;-46
2022/01/08 11:39:35;;;;;;;;;8.75;7.00;;;;;8.66;76.68;100792.53;5077865;27;45275;-47
2022/01/08 11:42:02;;;;;;;;;9.75;6.00;;;;;8.65;77.39;100788.22;5077648;28;46622;-47
2022/01/08 11:44:32;;;;;;;;;6.50;5.00;;;;;8.65;78.74;100772.28;5078239;28;45239;-45
2022/01/08 11:46:59;;;;;;;;;8.75;5.00;;;;;8.64;78.21;100757.38;5078257;28;45313;-47
2022/01/08 11:49:25;;;;;;;;;9.00;6.50;;;;;8.71;78.74;100752.34;5077604;27;45525;-45
2022/01/08 11:52:21;;;;;;;;;9.50;5.75;;;;;8.70;78.00;100735.59;5077508;27;45316;-49
2022/01/08 11:54:48;;;;;;;;;5.00;4.00;;;;;8.67;78.33;100727.06;5077657;27;45236;-44
2022/01/08 11:57:17;;;;;;;;;11.00;4.50;;;;;8.60;78.14;100712.69;5077389;27;45472;-46
2022/01/08 11:59:43;;;;;;;;;11.50;8.00;;;;;8.57;78.14;100699.69;5077185;27;45508;-44